Time;durP1;ratioP1;P1;durP2;ratioP2;P2;SDS_P1;SDS_P2;PMS_P1;PMS_P2;Temp;Humidity;BMP_temperature;BMP_pressure;BME280_temperature;BME280_humidity;BME280_pressure;Samples;Min_cycle;Max_cycle;Signal;HPM_P1;HPM_P2
2022/01/28 00:01:00;;;;;;;;;;;4.20;99.90;;;3.74;100.00;100311.28;5057900;28;20292;-58
2022/01/28 00:03:26;;;;;;;;;;;4.20;99.90;;;3.25;100.00;100225.97;5059183;28;19943;-57
2022/01/28 00:05:51;;;;;;;;;;;4.20;99.90;;;3.62;100.00;100288.69;5057636;28;19921;-58
2022/01/28 00:08:17;;;;;;;;;;;4.20;99.90;;;3.71;100.00;100307.09;5041274;28;20361;-58
2022/01/28 00:10:43;;;;;;;;;;;4.30;99.90;;;3.81;100.00;100315.31;5075517;28;19928;-58
2022/01/28 00:16:01;;;;;;;;;;;4.30;99.90;;;3.81;100.00;100315.31;5058439;28;20015;-57
2022/01/28 00:37:59;;;;;;;;;;;4.40;99.90;;;3.91;100.00;100346.50;5074984;28;19927;-57
2022/01/28 00:40:12;;;;;;;;;;;4.40;99.90;;;3.94;100.00;100349.81;5074714;28;19921;-58
2022/01/28 00:42:38;;;;;;;;;;;4.50;99.90;;;3.89;100.00;100355.91;5074916;28;20328;-67
2022/01/28 00:45:04;;;;;;;;;;;4.50;99.90;;;3.93;100.00;100358.34;5056977;28;19943;-58
2022/01/28 00:47:30;;;;;;;;;;;4.40;99.90;;;3.93;100.00;100358.34;5075022;28;19924;-58
2022/01/28 00:49:56;;;;;;;;;;;4.40;99.90;;;3.97;100.00;100354.81;5074693;28;19931;-57
2022/01/28 00:52:21;;;;;;;;;;;4.40;99.90;;;3.76;100.00;100312.91;5074942;28;19920;-58
2022/01/28 00:54:47;;;;;;;;;;;4.50;99.90;;;3.98;100.00;100355.66;5074795;28;19921;-58
2022/01/28 00:57:13;;;;;;;;;;;4.50;99.90;;;4.03;100.00;100354.66;5074510;28;20443;-58
2022/01/28 00:59:39;;;;;;;;;;;4.50;99.90;;;4.05;100.00;100360.53;5056527;28;19924;-67
2022/01/28 01:02:04;;;;;;;;;;;4.50;99.90;;;4.04;100.00;100351.19;5074707;28;20405;-58
2022/01/28 01:04:30;;;;;;;;;;;4.50;99.90;;;3.94;100.00;100347.25;5056577;28;19973;-57
2022/01/28 01:06:56;;;;;;;;;;;4.50;99.90;;;3.94;100.00;100348.97;5056205;28;19925;-57
2022/01/28 01:09:21;;;;;;;;;;;4.50;99.90;;;3.96;100.00;100363.34;5074642;28;19927;-58
2022/01/28 01:11:47;;;;;;;;;;;4.50;99.90;;;3.94;100.00;100374.50;5056432;28;19967;-58
2022/01/28 01:14:13;;;;;;;;;;;4.40;99.90;;;3.88;100.00;100370.41;5039876;28;19921;-57
2022/01/28 01:16:58;;;;;;;;;;;4.40;99.90;;;3.91;100.00;100380.53;5056671;28;19917;-58
2022/01/28 01:19:27;;;;;;;;;;;4.40;99.90;;;3.92;100.00;100382.22;5074283;28;19920;-57
2022/01/28 01:21:57;;;;;;;;;;;4.40;99.90;;;3.80;100.00;100354.47;5073947;28;19978;-58
2022/01/28 01:24:25;;;;;;;;;;;4.40;99.90;;;3.90;100.00;100380.56;5073861;28;20293;-57
2022/01/28 01:26:51;;;;;;;;;;;4.40;99.90;;;3.86;100.00;100384.09;5056481;28;19966;-57
2022/01/28 01:29:19;;;;;;;;;;;4.40;99.90;;;3.79;100.00;100385.97;5039848;28;19920;-57
2022/01/28 01:31:45;;;;;;;;;;;4.30;99.90;;;3.78;100.00;100377.50;5056486;28;20285;-58
2022/01/28 01:36:37;;;;;;;;;;;4.30;99.90;;;3.61;100.00;100381.41;5055983;28;19924;-57
2022/01/28 01:39:03;;;;;;;;;;;4.30;99.90;;;3.39;100.00;100346.28;5055809;28;19928;-57
2022/01/28 01:41:35;;;;;;;;;;;4.20;99.90;;;3.57;100.00;100392.56;5073970;28;19920;-57
2022/01/28 01:46:45;;;;;;;;;;;4.20;99.90;;;3.64;100.00;100417.03;5073949;28;20352;-57
2022/01/28 01:52:04;;;;;;;;;;;4.10;99.90;;;3.61;100.00;100412.88;5073486;28;19932;-57
2022/01/28 01:54:35;;;;;;;;;;;4.10;99.90;;;3.43;100.00;100386.13;5073829;28;20003;-57
2022/01/28 01:57:01;;;;;;;;;;;4.10;99.90;;;3.67;100.00;100434.81;5073609;28;19920;-58
2022/01/28 01:59:26;;;;;;;;;;;4.20;99.90;;;3.66;100.00;100440.81;5055768;28;19974;-57
2022/01/28 02:01:52;;;;;;;;;;;4.10;99.90;;;3.69;100.00;100439.03;5055491;28;19990;-57
2022/01/28 02:04:18;;;;;;;;;;;4.20;99.90;;;3.50;100.00;100421.69;5074097;28;19920;-57
2022/01/28 02:06:43;;;;;;;;;;;4.20;99.90;;;3.73;100.00;100463.56;5055697;28;20383;-59
2022/01/28 02:09:09;;;;;;;;;;;4.20;99.90;;;3.77;100.00;100454.97;5056403;28;19974;-57
2022/01/28 02:11:35;;;;;;;;;;;4.20;99.90;;;3.72;100.00;100445.72;5055794;28;19921;-57
2022/01/28 02:14:02;;;;;;;;;;;4.30;99.90;;;3.25;100.00;100376.41;5073372;28;19942;-58
2022/01/28 02:16:28;;;;;;;;;;;4.20;99.90;;;3.47;100.00;100414.94;5055910;28;19921;-57
2022/01/28 02:18:57;;;;;;;;;;;4.30;99.90;;;3.84;100.00;100470.94;5073038;28;19968;-58
2022/01/28 02:21:23;;;;;;;;;;;4.30;99.90;;;3.80;100.00;100462.50;5073604;28;19971;-57
2022/01/28 02:23:54;;;;;;;;;;;4.30;99.90;;;3.86;100.00;100463.25;5055455;28;19927;-58
2022/01/28 02:26:20;;;;;;;;;;;4.30;99.90;;;3.55;100.00;100414.72;5056414;28;19920;-57
2022/01/28 02:28:49;;;;;;;;;;;4.30;99.90;;;3.75;100.00;100458.41;5073207;28;19928;-58
2022/01/28 02:31:21;;;;;;;;;;;4.30;99.90;;;3.85;100.00;100464.97;5055785;28;19928;-57
2022/01/28 02:33:48;;;;;;;;;;;4.30;99.90;;;3.85;100.00;100464.97;5073362;28;19921;-58
2022/01/28 02:36:14;;;;;;;;;;;4.30;99.90;;;3.88;100.00;100458.91;5055637;28;19928;-58
2022/01/28 02:38:40;;;;;;;;;;;4.30;99.90;;;3.87;100.00;100452.16;5055889;28;20309;-58
2022/01/28 02:41:06;;;;;;;;;;;4.40;99.90;;;3.85;100.00;100462.41;5073340;28;20281;-57
2022/01/28 02:43:43;;;;;;;;;;;4.40;99.90;;;3.87;100.00;100447.06;5073140;28;20309;-57
2022/01/28 02:46:13;;;;;;;;;;;4.40;99.90;;;3.53;100.00;100396.94;5073176;28;19963;-57
2022/01/28 02:48:42;;;;;;;;;;;4.40;99.90;;;3.73;100.00;100455.06;5056043;28;20289;-57
2022/01/28 02:51:16;;;;;;;;;;;4.30;99.90;;;3.58;100.00;100429.97;5075609;28;19932;-57
2022/01/28 02:53:50;;;;;;;;;;;4.30;99.90;;;3.87;100.00;100470.84;5060693;28;20321;-57
2022/01/28 02:56:35;;;;;;;;;;;4.30;99.90;;;3.70;100.00;100447.50;5077233;28;19921;-58
2022/01/28 02:59:01;;;;;;;;;;;4.30;99.90;;;3.69;100.00;100449.22;5076890;28;20281;-58
2022/01/28 03:01:27;;;;;;;;;;;4.30;99.90;;;3.76;100.00;100470.31;5077047;28;19921;-57
2022/01/28 03:03:55;;;;;;;;;;;4.40;99.90;;;3.65;100.00;100444.22;5059304;28;19916;-58
2022/01/28 03:06:21;;;;;;;;;;;4.40;99.90;;;3.86;100.00;100476.00;5077089;28;19951;-57
2022/01/28 03:19:28;;;;;;;;;;;4.30;99.90;;;3.86;100.00;100491.31;5069437;28;19928;-57
2022/01/28 03:21:55;;;;;;;;;;;4.30;99.90;;;3.86;100.00;100488.78;5058491;28;19927;-58
2022/01/28 03:24:25;;;;;;;;;;;4.30;99.90;;;3.84;100.00;100491.38;5076566;28;19928;-57
2022/01/28 03:26:54;;;;;;;;;;;4.40;99.90;;;3.87;100.00;100481.03;5042321;28;19920;-57
2022/01/28 03:29:19;;;;;;;;;;;4.40;99.90;;;3.94;100.00;100474.91;5076304;28;19970;-57
2022/01/28 03:31:45;;;;;;;;;;;4.40;99.90;;;3.95;100.00;100479.16;5076122;28;19920;-58
2022/01/28 03:34:11;;;;;;;;;;;4.40;99.90;;;3.88;100.00;100490.38;5075979;28;19920;-58
2022/01/28 03:36:37;;;;;;;;;;;4.40;99.90;;;3.93;100.00;100493.66;5058208;28;19920;-57
2022/01/28 03:39:03;;;;;;;;;;;4.40;99.90;;;3.94;100.00;100490.25;5076066;28;19920;-58
2022/01/28 03:41:29;;;;;;;;;;;4.40;99.90;;;3.87;100.00;100480.25;5041759;28;19920;-57
2022/01/28 03:44:00;;;;;;;;;;;4.40;99.90;;;3.96;100.00;100490.16;5058173;28;19924;-57
2022/01/28 03:46:26;;;;;;;;;;;4.40;99.90;;;3.95;100.00;100491.91;5076101;28;19920;-58
2022/01/28 03:48:53;;;;;;;;;;;4.40;99.90;;;3.87;100.00;100487.91;5075918;28;19921;-57
2022/01/28 03:51:19;;;;;;;;;;;4.40;99.90;;;3.92;100.00;100499.66;5025189;28;19946;-57
2022/01/28 03:53:44;;;;;;;;;;;4.40;99.90;;;3.94;100.00;100497.91;5058023;28;19924;-58
2022/01/28 03:56:10;;;;;;;;;;;4.40;99.90;;;3.96;100.00;100506.34;5075760;28;19985;-57
2022/01/28 03:58:36;;;;;;;;;;;4.40;99.90;;;3.95;100.00;100512.34;5075718;28;20385;-59
2022/01/28 04:01:04;;;;;;;;;;;4.40;99.90;;;3.63;100.00;100469.78;5075379;28;19973;-58
2022/01/28 04:11:37;;;;;;;;;;;4.50;99.90;;;3.98;100.00;100519.91;5075616;28;19931;-57
2022/01/28 04:14:19;;;;;;;;;;;4.50;99.90;;;3.97;100.00;100515.66;5060771;28;20035;-58
2022/01/28 04:19:29;;;;;;;;;;;4.50;99.90;;;3.91;100.00;100525.22;5075395;28;19922;-57
2022/01/28 04:21:54;;;;;;;;;;;4.40;99.90;;;3.77;100.00;100520.47;5057188;28;19924;-58
2022/01/28 04:24:20;;;;;;;;;;;4.40;99.90;;;3.75;100.00;100535.00;5075238;28;19979;-58
2022/01/28 04:26:46;;;;;;;;;;;4.30;99.90;;;3.76;100.00;100537.50;5075171;28;19921;-57
2022/01/28 04:29:13;;;;;;;;;;;4.30;99.90;;;3.87;100.00;100546.63;5075469;28;19928;-58
2022/01/28 04:31:45;;;;;;;;;;;4.30;99.90;;;3.49;100.00;100488.88;5075577;28;19931;-57
2022/01/28 04:34:11;;;;;;;;;;;4.30;99.90;;;3.28;100.00;100463.06;5058049;28;20269;-58
2022/01/28 04:36:45;;;;;;;;;;;4.30;99.90;;;3.51;100.00;100505.84;5057477;28;19943;-57
2022/01/28 04:39:28;;;;;;;;;;;4.30;99.90;;;3.69;100.00;100548.75;5074764;28;20297;-58
2022/01/28 04:42:12;;;;;;;;;;;4.30;99.90;;;3.81;100.00;100562.91;5074985;28;19920;-58
2022/01/28 05:02:54;;;;;;;;;;;4.10;99.90;;;3.53;100.00;100569.59;5074686;28;19925;-57
2022/01/28 05:13:36;;;;;;;;;;;4.00;99.90;;;3.46;100.00;100580.81;5073836;28;20373;-58
2022/01/28 05:29:02;;;;;;;;;;;3.90;99.90;;;3.20;100.00;100538.09;5055985;28;19970;-58
2022/01/28 05:31:28;;;;;;;;;;;3.90;99.90;;;3.41;100.00;100586.88;5069563;28;19925;-58
2022/01/28 05:33:53;;;;;;;;;;;3.90;99.90;;;3.43;100.00;100584.28;5054201;28;19927;-57
2022/01/28 05:36:19;;;;;;;;;;;3.90;99.90;;;3.26;100.00;100571.94;5053779;28;19990;-57
2022/01/28 05:38:45;;;;;;;;;;;3.90;99.90;;;3.37;100.00;100594.63;5054222;28;20262;-57
2022/01/28 05:41:11;;;;;;;;;;;3.80;99.90;;;3.37;100.00;100582.72;5053785;28;19939;-58
2022/01/28 05:43:36;;;;;;;;;;;3.80;99.90;;;3.01;100.00;100541.06;5036157;28;19920;-57
2022/01/28 05:46:02;;;;;;;;;;;3.80;99.90;;;3.19;100.00;100583.16;5052611;28;19928;-58
2022/01/28 05:48:28;;;;;;;;;;;3.80;99.90;;;3.31;100.00;100599.84;5052952;28;19920;-57
2022/01/28 05:50:54;;;;;;;;;;;3.80;99.90;;;3.13;100.00;100577.34;5052741;28;20281;-57
2022/01/28 05:53:19;;;;;;;;;;;3.80;99.90;;;3.27;100.00;100611.03;5053584;28;19924;-58
2022/01/28 05:55:45;;;;;;;;;;;3.80;99.90;;;3.25;100.00;100631.44;5053773;28;19921;-57
2022/01/28 05:58:11;;;;;;;;;;;3.70;99.90;;;3.05;100.00;100590.25;5052310;28;19920;-57
2022/01/28 06:00:36;;;;;;;;;;;3.70;99.90;;;3.25;100.00;100631.44;5053456;28;19974;-57
2022/01/28 06:03:02;;;;;;;;;;;3.80;99.90;;;3.26;100.00;100639.94;5052254;28;19920;-57
2022/01/28 06:05:36;;;;;;;;;;;3.80;99.90;;;3.23;100.00;100648.50;5053714;28;19921;-57
2022/01/28 06:08:02;;;;;;;;;;;3.70;99.90;;;3.15;100.00;100641.88;5052297;28;19921;-58
2022/01/28 06:10:28;;;;;;;;;;;3.70;99.90;;;3.08;100.00;100651.38;5052631;28;19917;-57
2022/01/28 06:12:53;;;;;;;;;;;3.70;99.90;;;3.21;100.00;100672.38;5052343;28;20366;-58
2022/01/28 06:15:19;;;;;;;;;;;3.70;99.90;;;3.21;100.00;100687.69;5035521;28;19932;-57
2022/01/28 06:17:45;;;;;;;;;;;3.70;99.90;;;2.70;100.00;100601.22;5052530;28;19924;-58
2022/01/28 06:20:14;;;;;;;;;;;3.70;99.90;;;2.85;100.00;100628.94;5053349;28;19927;-58
2022/01/28 06:22:40;;;;;;;;;;;3.70;99.90;;;3.24;100.00;100687.59;5053534;28;20358;-58
2022/01/28 06:25:07;;;;;;;;;;;3.70;99.90;;;3.17;100.00;100696.25;5054187;28;19967;-58
2022/01/28 06:27:32;;;;;;;;;;;3.70;99.90;;;3.18;100.00;100691.13;5057648;28;20011;-57
2022/01/28 06:29:58;;;;;;;;;;;3.70;99.90;;;3.12;100.00;100683.59;5062907;28;19946;-57
2022/01/28 06:32:24;;;;;;;;;;;3.70;99.90;;;3.27;100.00;100711.34;5059888;28;20373;-57
2022/01/28 06:34:49;;;;;;;;;;;3.70;99.90;;;3.26;100.00;100713.91;5077192;28;20370;-57
2022/01/28 06:37:15;;;;;;;;;;;3.70;99.90;;;3.22;100.00;100715.66;5059427;28;19931;-57
2022/01/28 06:39:41;;;;;;;;;;;3.70;99.90;;;3.27;100.00;100708.78;5059594;28;19966;-57
2022/01/28 06:42:07;;;;;;;;;;;3.70;99.90;;;2.83;100.00;100634.91;5077231;28;19946;-57
2022/01/28 06:44:33;;;;;;;;;;;3.70;99.90;;;3.25;100.00;100707.13;5077058;28;19963;-57
2022/01/28 06:46:58;;;;;;;;;;;3.70;99.90;;;3.24;100.00;100713.09;5077227;28;19928;-57
2022/01/28 06:49:24;;;;;;;;;;;3.70;99.90;;;2.77;100.00;100628.25;5076772;28;19920;-57
2022/01/28 06:51:50;;;;;;;;;;;3.70;99.90;;;3.10;100.00;100677.69;5076982;28;19924;-57
2022/01/28 06:54:16;;;;;;;;;;;3.70;99.90;;;3.29;100.00;100707.03;5077135;28;19931;-57
2022/01/28 06:56:41;;;;;;;;;;;3.80;99.90;;;3.29;100.00;100708.75;5058933;28;19916;-57
2022/01/28 06:59:07;;;;;;;;;;;3.70;99.90;;;3.22;100.00;100702.91;5058920;28;19932;-57
2022/01/28 07:01:33;;;;;;;;;;;3.70;99.90;;;3.20;100.00;100714.03;5076965;28;19927;-57
2022/01/28 07:04:00;;;;;;;;;;;3.70;99.90;;;3.23;100.00;100724.16;5076862;28;19920;-57
2022/01/28 07:06:26;;;;;;;;;;;3.70;99.90;;;3.22;100.00;100717.38;5058900;28;19925;-57
2022/01/28 07:08:52;;;;;;;;;;;3.70;99.90;;;2.95;100.00;100670.38;5076622;28;19923;-57
2022/01/28 07:11:18;;;;;;;;;;;3.70;99.90;;;3.26;100.00;100717.31;5076242;28;19921;-57
2022/01/28 07:13:44;;;;;;;;;;;3.70;99.90;;;3.05;100.00;100700.72;5076531;28;19925;-57
2022/01/28 07:16:09;;;;;;;;;;;3.70;99.90;;;3.12;100.00;100692.97;5076146;28;19917;-57
2022/01/28 07:18:35;;;;;;;;;;;3.80;99.90;;;3.14;100.00;100694.59;5076392;28;19920;-57
2022/01/28 07:21:01;;;;;;;;;;;3.80;99.90;;;3.45;100.00;100740.72;5058904;28;19920;-57
2022/01/28 07:23:27;;;;;;;;;;;3.80;99.90;;;3.45;100.00;100727.97;5076849;28;19928;-57
2022/01/28 07:25:53;;;;;;;;;;;3.90;99.90;;;3.53;100.00;100741.38;5076570;28;20253;-57
2022/01/28 07:28:22;;;;;;;;;;;3.90;99.90;;;3.58;100.00;100731.06;5076298;28;19920;-58
2022/01/28 07:30:47;;;;;;;;;;;4.00;99.90;;;3.28;100.00;100694.31;5058149;28;19932;-57
2022/01/28 07:33:13;;;;;;;;;;;4.00;99.90;;;3.60;100.00;100740.38;5075906;28;19928;-57
2022/01/28 07:35:39;;;;;;;;;;;4.10;99.90;;;3.69;100.00;100752.94;5075773;28;19920;-58
2022/01/28 07:38:05;;;;;;;;;;;4.10;99.90;;;3.70;100.00;100762.28;5075804;28;19947;-58
2022/01/28 07:40:30;;;;;;;;;;;4.10;99.90;;;3.43;100.00;100705.03;5076391;28;19925;-58
2022/01/28 07:42:56;;;;;;;;;;;4.20;99.90;;;3.79;100.00;100756.94;5076192;28;19924;-57
2022/01/28 07:45:22;;;;;;;;;;;4.20;99.90;;;3.83;100.00;100755.19;5058158;28;19920;-57
2022/01/28 07:47:48;;;;;;;;;;;4.30;99.90;;;3.89;100.00;100775.44;5075855;28;19954;-57
2022/01/28 07:50:14;;;;;;;;;;;4.40;99.90;;;3.88;100.00;100755.06;5075955;28;19945;-58
2022/01/28 07:52:40;;;;;;;;;;;4.40;99.90;;;3.90;100.00;100763.53;5058587;28;19921;-57
2022/01/28 07:55:09;;;;;;;;;;;4.40;99.90;;;3.85;100.00;100758.53;5057749;28;19921;-58
2022/01/28 07:57:35;;;;;;;;;;;4.40;99.90;;;3.88;100.00;100770.38;5058758;28;20365;-57
2022/01/28 08:00:00;;;;;;;;;;;4.40;99.90;;;3.88;100.00;100783.13;5057825;28;19925;-65
2022/01/28 08:02:27;;;;;;;;;;;4.40;99.90;;;3.88;100.00;100796.75;5075674;28;19922;-62
2022/01/28 08:04:53;;;;;;;;;;;4.40;99.90;;;3.44;100.00;100691.41;5073796;28;19920;-64
2022/01/28 08:07:21;;;;;;;;;;;4.40;99.90;;;4.06;100.00;100768.25;5076342;28;20071;-64
2022/01/28 08:09:47;;;;;;;;;;;4.50;99.90;;;4.15;100.00;100783.34;5075662;28;20015;-62
2022/01/28 08:12:13;;;;;;;;;;;4.60;99.90;;;4.30;100.00;100786.41;5075588;28;19973;-64
2022/01/28 08:14:39;;;;;;;;;;;4.70;99.90;;;4.46;100.00;100791.09;5041170;28;19916;-62
2022/01/28 08:17:04;;;;;;;;;;;4.80;99.90;;;4.61;100.00;100801.84;5075630;28;19966;-62
2022/01/28 08:19:30;;;;;;;;;;;5.00;99.90;;;4.72;100.00;100805.81;5041129;28;20374;-61
2022/01/28 08:21:56;;;;;;;;;;;5.10;99.90;;;4.90;100.00;100807.88;5057325;28;19932;-62
2022/01/28 08:24:21;;;;;;;;;;;5.30;99.90;;;4.57;100.00;100758.47;5075065;28;19920;-62
2022/01/28 08:26:47;;;;;;;;;;;5.40;99.90;;;4.71;100.00;100808.38;5041196;28;19925;-61
2022/01/28 08:29:13;;;;;;;;;;;5.50;99.90;;;4.39;100.00;100760.63;5075156;28;19956;-61
2022/01/28 08:31:39;;;;;;;;;;;5.40;99.90;;;4.64;100.00;100805.16;5075649;28;19925;-61
2022/01/28 08:34:04;;;;;;;;;;;5.40;99.90;;;4.32;100.00;100764.22;5074930;28;19928;-61
2022/01/28 08:36:30;;;;;;;;;;;5.30;99.90;;;4.60;100.00;100821.47;5074867;28;19927;-62
2022/01/28 08:38:56;;;;;;;;;;;5.30;99.90;;;4.33;100.00;100773.56;5057414;28;19924;-63
2022/01/28 08:41:23;;;;;;;;;;;5.30;99.90;;;4.39;100.00;100770.84;5074942;28;19920;-62
2022/01/28 08:43:49;;;;;;;;;;;5.30;99.90;;;4.67;100.00;100833.22;5075129;28;19921;-62
2022/01/28 08:46:14;;;;;;;;;;;5.30;99.90;;;4.71;100.00;100832.25;5056785;28;19923;-64
2022/01/28 08:48:40;;;;;;;;;;;5.30;99.90;;;4.78;100.00;100835.47;5074237;28;19921;-63
2022/01/28 08:51:06;;;;;;;;;;;5.30;99.90;;;4.88;100.00;100832.66;5074886;28;19974;-62
2022/01/28 08:53:32;;;;;;;;;;;5.40;99.90;;;4.62;100.00;100796.69;5023529;28;19923;-62
2022/01/28 08:55:58;;;;;;;;;;;5.50;99.90;;;4.86;100.00;100839.50;5075066;28;19920;-61
2022/01/28 08:58:23;;;;;;;;;;;5.50;99.90;;;4.46;100.00;100755.34;5074331;28;19925;-62
2022/01/28 09:00:52;;;;;;;;;;;5.50;99.90;;;5.05;100.00;100828.81;5074925;28;19969;-61
2022/01/28 09:03:19;;;;;;;;;;;5.60;99.90;;;5.00;100.00;100805.94;5074525;28;20281;-61
2022/01/28 09:05:45;;;;;;;;;;;5.70;99.90;;;5.23;100.00;100836.84;5074442;28;19920;-61
2022/01/28 09:08:10;;;;;;;;;;;5.70;99.90;;;5.29;100.00;100843.50;5074398;28;19973;-61
2022/01/28 09:10:38;;;;;;;;;;;5.80;99.90;;;5.05;100.00;100783.63;5073316;28;19920;-62
2022/01/28 09:15:33;;;;;;;;;;;5.90;99.60;;;5.47;100.00;100837.88;5074173;28;19964;-63
2022/01/28 09:17:59;;;;;;;;;;;6.00;99.70;;;5.17;100.00;100792.69;5056508;28;19920;-61
2022/01/28 09:20:25;;;;;;;;;;;6.10;99.50;;;5.71;100.00;100852.56;5074187;28;19928;-62
2022/01/28 09:22:51;;;;;;;;;;;6.20;99.90;;;5.83;100.00;100830.88;5074416;28;19924;-61
2022/01/28 09:25:17;;;;;;;;;;;6.40;99.50;;;6.02;100.00;100846.56;5074149;28;19917;-63
2022/01/28 09:27:43;;;;;;;;;;;6.60;99.20;;;6.15;100.00;100854.72;5074588;28;19927;-62
2022/01/28 09:30:09;;;;;;;;;;;6.70;98.80;;;6.11;100.00;100851.41;5074208;28;19924;-61
2022/01/28 09:32:34;;;;;;;;;;;6.80;98.30;;;6.12;100.00;100855.63;5073788;28;20011;-61
2022/01/28 09:35:02;;;;;;;;;;;6.90;97.90;;;6.16;100.00;100862.38;5074043;28;19917;-62
2022/01/28 09:37:29;;;;;;;;;;;6.90;97.70;;;5.74;100.00;100808.94;5073085;28;20341;-62
2022/01/28 09:39:55;;;;;;;;;;;6.80;97.30;;;5.99;100.00;100860.31;5039519;28;20376;-61
2022/01/28 09:42:25;;;;;;;;;;;6.70;97.20;;;6.05;100.00;100857.56;5073785;28;19954;-60
2022/01/28 09:44:51;;;;;;;;;;;6.70;97.30;;;6.02;100.00;100849.09;5073952;28;19922;-62
2022/01/28 09:47:17;;;;;;;;;;;6.80;97.30;;;5.96;100.00;100864.66;5056038;28;19916;-63
2022/01/28 09:49:42;;;;;;;;;;;6.70;97.30;;;5.88;100.00;100836.72;5073629;28;19921;-61
2022/01/28 09:52:10;;;;;;;;;;;6.60;97.30;;;5.90;100.00;100865.69;5074229;28;20421;-61
2022/01/28 09:54:36;;;;;;;;;;;6.60;97.40;;;5.30;100.00;100787.16;5073622;28;19928;-61
2022/01/28 09:57:02;;;;;;;;;;;6.50;97.40;;;5.88;100.00;100875.16;5055644;28;20286;-62
2022/01/28 09:59:28;;;;;;;;;;;6.50;97.50;;;5.88;100.00;100872.59;5055173;28;19931;-62
2022/01/28 10:01:54;;;;;;;;;;;6.50;97.80;;;5.96;100.00;100857.00;5073684;28;19920;-62
2022/01/28 10:04:20;;;;;;;;;;;6.50;97.60;;;6.37;100.00;100863.41;5055687;28;19916;-61
2022/01/28 10:06:46;;;;;;;;;;;6.60;97.60;;;8.58;100.00;100864.88;5055774;28;19921;-61
2022/01/28 10:09:13;;;;;;;;;;;7.60;98.60;;;9.23;100.00;100821.81;5073502;28;19924;-66
2022/01/28 10:11:42;;;;;;;;;;;9.50;94.70;;;9.61;100.00;100871.66;5073523;28;19970;-62
2022/01/28 10:14:19;;;;;;;;;;;9.90;92.50;;;8.82;100.00;100877.63;5073531;28;19920;-62
2022/01/28 10:17:01;;;;;;;;;;;10.00;89.20;;;8.56;100.00;100865.84;5073517;28;19924;-61
2022/01/28 10:19:40;;;;;;;;;;;9.80;87.90;;;8.05;100.00;100827.56;5073341;28;19920;-61
2022/01/28 10:22:18;;;;;;;;;;;9.50;88.20;;;7.74;100.00;100869.00;5073658;28;20001;-62
2022/01/28 10:24:44;;;;;;;;;;;9.20;88.80;;;8.36;100.00;100844.31;5055692;28;19921;-61
2022/01/28 10:27:10;;;;;;;;;;;9.10;90.00;;;10.02;100.00;100842.28;5055636;28;19927;-62
2022/01/28 10:29:37;;;;;;;;;;;10.00;90.60;;;10.64;91.34;100853.94;5038488;28;20279;-62
2022/01/28 10:32:06;;;;;;;;;;;11.00;89.20;;;11.31;81.97;100845.38;5073573;28;19925;-61
2022/01/28 10:34:49;;;;;;;;;;;11.90;81.90;;;12.07;70.93;100838.72;5073287;28;20027;-64
2022/01/28 10:37:30;;;;;;;;;;;12.70;76.70;;;11.89;71.02;100835.38;5055381;28;19921;-64
2022/01/28 10:40:09;;;;;;;;;;;13.20;75.90;;;11.97;69.73;100843.56;5055237;28;19928;-62
2022/01/28 10:42:38;;;;;;;;;;;13.70;71.70;;;11.55;67.79;100797.56;5038436;28;19916;-63
2022/01/28 10:45:13;;;;;;;;;;;13.60;68.10;;;11.24;72.26;100847.44;5039394;28;19928;-65
2022/01/28 10:47:45;;;;;;;;;;;13.40;68.60;;;10.89;71.86;100792.41;5056800;28;19967;-62
2022/01/28 10:50:18;;;;;;;;;;;13.30;68.80;;;10.85;72.43;100850.31;5073191;28;19971;-62
2022/01/28 10:52:44;;;;;;;;;;;13.10;68.80;;;9.98;78.51;100825.25;5073253;28;19990;-61
2022/01/28 10:55:19;;;;;;;;;;;12.60;68.40;;;9.74;87.41;100859.91;5055323;28;20327;-61
2022/01/28 10:57:58;;;;;;;;;;;12.10;69.70;;;9.26;92.71;100853.44;5073238;28;19924;-61
2022/01/28 11:00:26;;;;;;;;;;;11.40;71.30;;;8.68;96.54;100822.44;5038107;28;20342;-61
2022/01/28 11:02:53;;;;;;;;;;;10.90;72.80;;;8.66;97.70;100829.38;5073222;28;19920;-61
2022/01/28 11:05:19;;;;;;;;;;;10.40;74.70;;;8.83;98.31;100859.56;5021967;28;19921;-61
2022/01/28 11:07:45;;;;;;;;;;;10.10;76.30;;;8.54;100.00;100862.50;5073157;28;19935;-60
2022/01/28 11:10:10;;;;;;;;;;;9.80;78.50;;;8.46;100.00;100875.66;5038269;28;19916;-60
2022/01/28 11:12:36;;;;;;;;;;;9.60;79.90;;;8.27;100.00;100828.38;5075641;28;19924;-60
2022/01/28 11:15:02;;;;;;;;;;;9.50;80.90;;;9.02;100.00;100868.19;5041918;28;20016;-64
2022/01/28 11:17:28;;;;;;;;;;;9.70;82.40;;;9.48;93.95;100874.78;5076394;28;20007;-64
2022/01/28 11:19:55;;;;;;;;;;;10.20;81.00;;;9.67;88.14;100869.66;5076780;28;19967;-62
2022/01/28 11:22:55;;;;;;;;;;;10.60;79.40;;;8.88;92.41;100834.47;5058168;28;20010;-62
2022/01/28 11:25:35;;;;;;;;;;;10.60;76.30;;;9.08;91.63;100875.66;5076204;28;20365;-62
2022/01/28 11:28:11;;;;;;;;;;;10.40;76.40;;;9.06;90.48;100861.16;5059742;28;19924;-62
2022/01/28 11:30:47;;;;;;;;;;;10.40;76.10;;;8.40;98.63;100824.44;5076239;28;19928;-62
2022/01/28 11:33:14;;;;;;;;;;;10.10;76.10;;;8.51;100.00;100848.00;5076273;28;20330;-61
2022/01/28 11:35:49;;;;;;;;;;;9.90;78.30;;;8.33;100.00;100859.88;5058425;28;20019;-62
2022/01/28 11:38:34;;;;;;;;;;;9.60;80.80;;;8.37;100.00;100856.28;5075833;28;19920;-60
2022/01/28 11:41:05;;;;;;;;;;;9.50;82.10;;;9.29;100.00;100853.31;5075858;28;20293;-62
2022/01/28 11:43:35;;;;;;;;;;;9.80;84.50;;;9.41;92.51;100851.94;5076005;28;19916;-62
2022/01/28 11:46:08;;;;;;;;;;;10.20;80.70;;;9.38;90.32;100850.34;5058261;28;19916;-61
2022/01/28 11:48:52;;;;;;;;;;;10.50;79.00;;;9.58;85.07;100858.91;5075781;28;19916;-62
2022/01/28 11:51:24;;;;;;;;;;;10.80;77.50;;;8.96;89.59;100793.81;5076070;28;19922;-62
2022/01/28 11:53:55;;;;;;;;;;;10.80;75.70;;;8.96;85.05;100829.00;5058340;28;20037;-62
2022/01/28 11:56:21;;;;;;;;;;;10.70;74.10;;;8.93;84.89;100855.72;5057979;28;19920;-63
2022/01/28 11:58:59;;;;;;;;;;;10.40;73.60;;;9.23;83.51;100866.44;5076031;28;19943;-62
2022/01/28 12:01:26;;;;;;;;;;;10.30;74.70;;;9.05;81.13;100862.94;5075743;28;19934;-62
2022/01/28 12:07:04;;;;;;;;;;;10.10;74.10;;;8.68;86.68;100867.91;5075834;28;20397;-62
2022/01/28 12:09:31;;;;;;;;;;;9.90;75.50;;;9.01;83.49;100858.78;5057717;28;20407;-61
2022/01/28 12:12:00;;;;;;;;;;;9.80;76.50;;;8.99;85.56;100863.16;5075863;28;20301;-62
2022/01/28 12:14:57;;;;;;;;;;;9.80;76.40;;;9.30;85.04;100855.00;5058053;28;19969;-60
2022/01/28 12:17:32;;;;;;;;;;;9.80;77.70;;;9.37;80.88;100840.94;5075334;28;20353;-62
2022/01/28 12:20:10;;;;;;;;;;;9.90;78.00;;;9.42;81.79;100859.59;5075595;28;20024;-61
2022/01/28 12:23:01;;;;;;;;;;;10.10;76.60;;;9.16;81.51;100863.28;5073803;28;19932;-63
2022/01/28 12:25:36;;;;;;;;;;;10.10;75.30;;;9.09;81.96;100855.91;5041798;28;19956;-62
2022/01/28 12:28:14;;;;;;;;;;;9.90;76.20;;;8.96;83.40;100863.31;5075393;28;20012;-60
2022/01/28 12:30:42;;;;;;;;;;;9.80;76.20;;;8.87;84.72;100857.72;5074683;28;19924;-61
2022/01/28 12:33:09;;;;;;;;;;;9.70;76.50;;;8.59;88.56;100855.41;5075418;28;19921;-61
2022/01/28 12:35:37;;;;;;;;;;;9.50;77.10;;;8.33;91.49;100865.00;5074995;28;19982;-62
2022/01/28 12:38:04;;;;;;;;;;;9.30;77.60;;;8.10;94.25;100849.63;5075397;28;20389;-63
2022/01/28 12:40:36;;;;;;;;;;;9.10;78.30;;;7.93;98.50;100852.00;5074874;28;19967;-64
2022/01/28 12:43:03;;;;;;;;;;;8.90;79.40;;;7.67;100.00;100817.00;5075097;28;20009;-61
2022/01/28 12:45:29;;;;;;;;;;;8.70;81.00;;;7.61;100.00;100805.22;5074853;28;19920;-61
2022/01/28 12:47:54;;;;;;;;;;;8.70;82.30;;;7.81;100.00;100819.06;5075293;28;19927;-60
2022/01/28 12:50:20;;;;;;;;;;;8.70;82.80;;;7.62;100.00;100798.34;5075040;28;20320;-61
2022/01/28 12:52:46;;;;;;;;;;;8.70;83.00;;;7.86;100.00;100817.13;5056812;28;20270;-61
2022/01/28 12:55:12;;;;;;;;;;;8.70;83.20;;;8.16;99.21;100843.38;5074543;28;19970;-63
2022/01/28 12:57:44;;;;;;;;;;;8.70;82.80;;;8.00;100.00;100835.44;5074723;28;19973;-63